sensor_id;sensor_type;location;lat;lon;timestamp;pressure;altitude;pressure_sealevel;temperature;humidity
48156;BME280;35568;48.104;11.782;2022-11-20T00:02:02;94804.50;;;5.40;54.87
48156;BME280;35568;48.104;11.782;2022-11-20T00:04:29;94804.24;;;5.50;55.17
48156;BME280;35568;48.104;11.782;2022-11-20T00:06:56;94800.20;;;5.57;54.90
48156;BME280;35568;48.104;11.782;2022-11-20T00:09:23;94803.47;;;5.52;54.95
48156;BME280;35568;48.104;11.782;2022-11-20T00:11:49;94807.00;;;5.30;55.14
48156;BME280;35568;48.104;11.782;2022-11-20T00:14:16;94802.91;;;5.41;55.16
48156;BME280;35568;48.104;11.782;2022-11-20T00:16:43;94805.22;;;5.19;55.65
48156;BME280;35568;48.104;11.782;2022-11-20T00:19:10;94809.25;;;5.27;55.77
48156;BME280;35568;48.104;11.782;2022-11-20T00:21:37;94806.85;;;5.38;55.62
48156;BME280;35568;48.104;11.782;2022-11-20T00:24:05;94806.13;;;5.33;55.55
48156;BME280;35568;48.104;11.782;2022-11-20T00:26:32;94812.80;;;5.30;55.46
48156;BME280;35568;48.104;11.782;2022-11-20T00:29:00;94815.45;;;5.57;55.11
48156;BME280;35568;48.104;11.782;2022-11-20T00:31:28;94813.40;;;5.26;55.36
48156;BME280;35568;48.104;11.782;2022-11-20T00:33:55;94815.68;;;5.36;55.67
48156;BME280;35568;48.104;11.782;2022-11-20T00:36:24;94818.22;;;5.70;54.97
48156;BME280;35568;48.104;11.782;2022-11-20T00:38:52;94818.11;;;5.47;55.19
48156;BME280;35568;48.104;11.782;2022-11-20T00:41:19;94817.62;;;5.33;54.98
48156;BME280;35568;48.104;11.782;2022-11-20T00:43:46;94816.78;;;5.71;54.73
48156;BME280;35568;48.104;11.782;2022-11-20T00:46:14;94822.72;;;5.73;54.65
48156;BME280;35568;48.104;11.782;2022-11-20T00:48:41;94822.45;;;5.72;54.46
48156;BME280;35568;48.104;11.782;2022-11-20T00:51:08;94826.06;;;5.44;54.76
48156;BME280;35568;48.104;11.782;2022-11-20T00:53:36;94828.66;;;5.70;54.71
48156;BME280;35568;48.104;11.782;2022-11-20T00:56:05;94829.41;;;5.64;54.88
48156;BME280;35568;48.104;11.782;2022-11-20T00:58:33;94829.73;;;5.16;55.20
48156;BME280;35568;48.104;11.782;2022-11-20T01:01:01;94831.05;;;5.40;55.20
48156;BME280;35568;48.104;11.782;2022-11-20T01:03:31;94832.48;;;5.52;55.02
48156;BME280;35568;48.104;11.782;2022-11-20T01:06:00;94836.16;;;5.51;55.12
48156;BME280;35568;48.104;11.782;2022-11-20T01:08:30;94837.41;;;5.57;55.23
48156;BME280;35568;48.104;11.782;2022-11-20T01:10:59;94840.03;;;5.47;55.12
48156;BME280;35568;48.104;11.782;2022-11-20T01:13:26;94843.04;;;5.27;55.54
48156;BME280;35568;48.104;11.782;2022-11-20T01:15:53;94844.41;;;5.47;55.40
48156;BME280;35568;48.104;11.782;2022-11-20T01:18:20;94846.10;;;5.66;55.27
48156;BME280;35568;48.104;11.782;2022-11-20T01:20:47;94848.35;;;5.53;55.20
48156;BME280;35568;48.104;11.782;2022-11-20T01:23:14;94847.36;;;5.76;55.25
48156;BME280;35568;48.104;11.782;2022-11-20T01:25:41;94848.15;;;5.46;55.10
48156;BME280;35568;48.104;11.782;2022-11-20T01:28:07;94848.25;;;5.55;55.19
48156;BME280;35568;48.104;11.782;2022-11-20T01:30:34;94848.86;;;5.82;55.23
48156;BME280;35568;48.104;11.782;2022-11-20T01:33:02;94847.07;;;5.49;55.50
48156;BME280;35568;48.104;11.782;2022-11-20T01:35:29;94847.89;;;5.70;55.47
48156;BME280;35568;48.104;11.782;2022-11-20T01:37:56;94846.42;;;5.39;55.40
48156;BME280;35568;48.104;11.782;2022-11-20T01:40:23;94847.97;;;5.25;55.66
48156;BME280;35568;48.104;11.782;2022-11-20T01:43:00;94846.88;;;5.44;55.54
48156;BME280;35568;48.104;11.782;2022-11-20T01:46:01;94843.74;;;5.52;55.35
48156;BME280;35568;48.104;11.782;2022-11-20T01:48:33;94846.34;;;5.61;55.08
48156;BME280;35568;48.104;11.782;2022-11-20T01:51:03;94847.48;;;5.67;54.83
48156;BME280;35568;48.104;11.782;2022-11-20T01:53:33;94846.19;;;5.46;55.41
48156;BME280;35568;48.104;11.782;2022-11-20T01:56:04;94847.64;;;5.66;55.21
48156;BME280;35568;48.104;11.782;2022-11-20T01:58:35;94844.63;;;5.05;55.26
48156;BME280;35568;48.104;11.782;2022-11-20T02:01:03;94844.63;;;5.61;55.12
48156;BME280;35568;48.104;11.782;2022-11-20T02:03:31;94845.09;;;5.63;54.94
48156;BME280;35568;48.104;11.782;2022-11-20T02:06:04;94843.30;;;5.24;55.01
48156;BME280;35568;48.104;11.782;2022-11-20T02:08:35;94844.98;;;5.40;55.13
48156;BME280;35568;48.104;11.782;2022-11-20T02:11:02;94846.22;;;5.33;55.39
48156;BME280;35568;48.104;11.782;2022-11-20T02:13:29;94843.55;;;5.32;55.08
48156;BME280;35568;48.104;11.782;2022-11-20T02:15:56;94845.58;;;5.43;55.25
48156;BME280;35568;48.104;11.782;2022-11-20T02:18:23;94846.56;;;5.39;55.07
48156;BME280;35568;48.104;11.782;2022-11-20T02:20:55;94848.58;;;5.32;55.17
48156;BME280;35568;48.104;11.782;2022-11-20T02:23:27;94847.74;;;5.35;55.14
48156;BME280;35568;48.104;11.782;2022-11-20T02:25:57;94847.88;;;5.04;55.10
48156;BME280;35568;48.104;11.782;2022-11-20T02:28:25;94849.28;;;5.22;55.45
48156;BME280;35568;48.104;11.782;2022-11-20T02:30:51;94852.41;;;5.24;55.39
48156;BME280;35568;48.104;11.782;2022-11-20T02:33:18;94855.30;;;5.09;55.54
48156;BME280;35568;48.104;11.782;2022-11-20T02:35:46;94857.47;;;5.32;55.01
48156;BME280;35568;48.104;11.782;2022-11-20T02:38:14;94858.93;;;5.46;54.82
48156;BME280;35568;48.104;11.782;2022-11-20T02:40:41;94858.34;;;5.56;54.44
48156;BME280;35568;48.104;11.782;2022-11-20T02:43:08;94857.30;;;5.44;54.58
48156;BME280;35568;48.104;11.782;2022-11-20T02:45:35;94853.48;;;5.22;54.59
48156;BME280;35568;48.104;11.782;2022-11-20T02:48:02;94853.94;;;5.25;54.53
48156;BME280;35568;48.104;11.782;2022-11-20T02:50:29;94854.31;;;5.73;54.54
48156;BME280;35568;48.104;11.782;2022-11-20T02:52:56;94855.23;;;5.70;54.13
48156;BME280;35568;48.104;11.782;2022-11-20T02:55:22;94853.37;;;5.37;54.56
48156;BME280;35568;48.104;11.782;2022-11-20T02:57:49;94853.65;;;5.50;54.13
48156;BME280;35568;48.104;11.782;2022-11-20T03:00:17;94856.43;;;5.28;54.59
48156;BME280;35568;48.104;11.782;2022-11-20T03:02:45;94856.99;;;5.22;54.48
48156;BME280;35568;48.104;11.782;2022-11-20T03:05:11;94855.19;;;5.33;54.30
48156;BME280;35568;48.104;11.782;2022-11-20T03:07:38;94851.54;;;5.40;54.33
48156;BME280;35568;48.104;11.782;2022-11-20T03:10:06;94852.57;;;5.04;54.53
48156;BME280;35568;48.104;11.782;2022-11-20T03:12:33;94847.57;;;5.09;54.01
48156;BME280;35568;48.104;11.782;2022-11-20T03:15:00;94846.92;;;5.55;53.83
48156;BME280;35568;48.104;11.782;2022-11-20T03:17:27;94847.28;;;5.59;53.80
48156;BME280;35568;48.104;11.782;2022-11-20T03:19:53;94848.36;;;5.59;53.59
48156;BME280;35568;48.104;11.782;2022-11-20T03:22:20;94846.10;;;5.58;53.85
48156;BME280;35568;48.104;11.782;2022-11-20T03:24:47;94844.23;;;5.70;53.31
48156;BME280;35568;48.104;11.782;2022-11-20T03:27:14;94842.20;;;5.54;53.62
48156;BME280;35568;48.104;11.782;2022-11-20T03:29:41;94841.14;;;5.54;53.68
48156;BME280;35568;48.104;11.782;2022-11-20T03:32:08;94843.53;;;5.69;53.50
48156;BME280;35568;48.104;11.782;2022-11-20T03:34:35;94845.94;;;5.39;53.44
48156;BME280;35568;48.104;11.782;2022-11-20T03:37:01;94846.01;;;5.61;53.15
48156;BME280;35568;48.104;11.782;2022-11-20T03:39:28;94849.43;;;5.22;53.32
48156;BME280;35568;48.104;11.782;2022-11-20T03:41:55;94851.89;;;5.45;53.65
48156;BME280;35568;48.104;11.782;2022-11-20T03:44:22;94850.70;;;5.16;53.64
48156;BME280;35568;48.104;11.782;2022-11-20T03:46:49;94853.83;;;5.63;52.94
48156;BME280;35568;48.104;11.782;2022-11-20T03:49:16;94850.70;;;5.72;53.02
48156;BME280;35568;48.104;11.782;2022-11-20T03:51:43;94851.37;;;5.59;53.03
48156;BME280;35568;48.104;11.782;2022-11-20T03:54:10;94847.02;;;5.41;53.35
48156;BME280;35568;48.104;11.782;2022-11-20T03:56:38;94844.90;;;5.34;53.60
48156;BME280;35568;48.104;11.782;2022-11-20T03:59:06;94840.33;;;5.32;53.22
48156;BME280;35568;48.104;11.782;2022-11-20T04:03:01;94837.85;;;5.45;52.81
48156;BME280;35568;48.104;11.782;2022-11-20T04:05:29;94839.30;;;5.36;53.20
48156;BME280;35568;48.104;11.782;2022-11-20T04:07:55;94841.64;;;5.42;52.83
48156;BME280;35568;48.104;11.782;2022-11-20T04:10:23;94845.47;;;5.54;52.73
48156;BME280;35568;48.104;11.782;2022-11-20T04:12:50;94849.65;;;5.24;53.01
48156;BME280;35568;48.104;11.782;2022-11-20T04:15:17;94853.21;;;5.51;52.90
48156;BME280;35568;48.104;11.782;2022-11-20T04:17:44;94853.72;;;5.27;52.87
48156;BME280;35568;48.104;11.782;2022-11-20T04:20:12;94857.08;;;5.19;53.12
48156;BME280;35568;48.104;11.782;2022-11-20T04:22:38;94858.64;;;5.44;53.31
48156;BME280;35568;48.104;11.782;2022-11-20T04:25:06;94856.70;;;5.20;53.32
48156;BME280;35568;48.104;11.782;2022-11-20T04:27:33;94858.06;;;5.57;53.10
48156;BME280;35568;48.104;11.782;2022-11-20T04:30:00;94854.39;;;5.49;53.09
48156;BME280;35568;48.104;11.782;2022-11-20T04:32:26;94854.76;;;5.54;53.17
48156;BME280;35568;48.104;11.782;2022-11-20T04:34:53;94854.59;;;5.29;53.37
48156;BME280;35568;48.104;11.782;2022-11-20T04:37:20;94852.75;;;5.25;53.54
48156;BME280;35568;48.104;11.782;2022-11-20T04:39:47;94852.59;;;5.30;53.26
48156;BME280;35568;48.104;11.782;2022-11-20T04:42:14;94849.85;;;5.33;52.99
48156;BME280;35568;48.104;11.782;2022-11-20T04:44:41;94848.61;;;5.24;53.02
48156;BME280;35568;48.104;11.782;2022-11-20T04:47:08;94849.87;;;5.26;52.73
48156;BME280;35568;48.104;11.782;2022-11-20T04:49:34;94850.78;;;5.46;52.95
48156;BME280;35568;48.104;11.782;2022-11-20T04:52:01;94849.15;;;5.56;52.73
48156;BME280;35568;48.104;11.782;2022-11-20T04:54:28;94849.33;;;5.63;52.33
48156;BME280;35568;48.104;11.782;2022-11-20T04:56:55;94851.57;;;5.69;52.13
48156;BME280;35568;48.104;11.782;2022-11-20T04:59:22;94850.89;;;5.68;52.14
48156;BME280;35568;48.104;11.782;2022-11-20T05:01:49;94848.47;;;5.21;52.53
48156;BME280;35568;48.104;11.782;2022-11-20T05:04:16;94848.75;;;5.37;52.66
48156;BME280;35568;48.104;11.782;2022-11-20T05:06:43;94852.48;;;5.35;52.57
48156;BME280;35568;48.104;11.782;2022-11-20T05:09:10;94856.66;;;5.19;52.87
48156;BME280;35568;48.104;11.782;2022-11-20T05:11:37;94856.05;;;5.48;52.23
48156;BME280;35568;48.104;11.782;2022-11-20T05:14:04;94855.85;;;5.11;52.42
48156;BME280;35568;48.104;11.782;2022-11-20T05:16:31;94853.54;;;5.42;52.47
48156;BME280;35568;48.104;11.782;2022-11-20T05:19:00;94856.67;;;5.38;52.57
48156;BME280;35568;48.104;11.782;2022-11-20T05:21:29;94858.03;;;5.08;52.40
48156;BME280;35568;48.104;11.782;2022-11-20T05:23:56;94857.78;;;5.26;52.77
48156;BME280;35568;48.104;11.782;2022-11-20T05:26:23;94858.70;;;5.28;52.82
48156;BME280;35568;48.104;11.782;2022-11-20T05:28:51;94856.96;;;5.25;52.74
48156;BME280;35568;48.104;11.782;2022-11-20T05:31:20;94857.27;;;5.24;52.92
48156;BME280;35568;48.104;11.782;2022-11-20T05:33:47;94859.96;;;5.20;52.76
48156;BME280;35568;48.104;11.782;2022-11-20T05:36:14;94858.60;;;5.27;52.68
48156;BME280;35568;48.104;11.782;2022-11-20T05:38:42;94860.63;;;5.17;52.98
48156;BME280;35568;48.104;11.782;2022-11-20T05:41:11;94860.96;;;5.28;52.63
48156;BME280;35568;48.104;11.782;2022-11-20T05:43:40;94858.37;;;5.17;52.76
48156;BME280;35568;48.104;11.782;2022-11-20T05:46:10;94861.09;;;5.19;52.48
48156;BME280;35568;48.104;11.782;2022-11-20T05:48:38;94863.59;;;5.08;52.90
48156;BME280;35568;48.104;11.782;2022-11-20T05:51:08;94868.08;;;5.18;52.73
48156;BME280;35568;48.104;11.782;2022-11-20T05:53:36;94865.68;;;4.93;53.05
48156;BME280;35568;48.104;11.782;2022-11-20T05:56:06;94868.42;;;5.20;52.75
48156;BME280;35568;48.104;11.782;2022-11-20T05:58:33;94866.14;;;5.18;52.86
48156;BME280;35568;48.104;11.782;2022-11-20T06:01:05;94866.41;;;5.07;52.97
48156;BME280;35568;48.104;11.782;2022-11-20T06:03:33;94869.12;;;4.09;53.12
48156;BME280;35568;48.104;11.782;2022-11-20T06:06:01;94870.76;;;5.32;52.26
48156;BME280;35568;48.104;11.782;2022-11-20T06:08:29;94871.97;;;5.13;52.25
48156;BME280;35568;48.104;11.782;2022-11-20T06:10:55;94870.35;;;5.34;52.64
48156;BME280;35568;48.104;11.782;2022-11-20T06:13:23;94870.49;;;5.16;53.15
48156;BME280;35568;48.104;11.782;2022-11-20T06:15:50;94869.73;;;5.10;53.33
48156;BME280;35568;48.104;11.782;2022-11-20T06:18:18;94872.04;;;5.22;53.26
48156;BME280;35568;48.104;11.782;2022-11-20T06:20:46;94867.19;;;5.14;53.17
48156;BME280;35568;48.104;11.782;2022-11-20T06:23:13;94868.26;;;4.97;53.40
48156;BME280;35568;48.104;11.782;2022-11-20T06:25:41;94865.35;;;4.94;53.53
48156;BME280;35568;48.104;11.782;2022-11-20T06:28:09;94866.64;;;4.91;53.59
48156;BME280;35568;48.104;11.782;2022-11-20T06:30:36;94866.72;;;4.84;53.70
48156;BME280;35568;48.104;11.782;2022-11-20T06:33:03;94868.57;;;4.59;53.77
48156;BME280;35568;48.104;11.782;2022-11-20T06:35:30;94866.68;;;4.76;53.80
48156;BME280;35568;48.104;11.782;2022-11-20T06:37:57;94869.39;;;4.75;54.05
48156;BME280;35568;48.104;11.782;2022-11-20T06:40:24;94871.61;;;4.70;54.00
48156;BME280;35568;48.104;11.782;2022-11-20T06:42:53;94869.47;;;4.69;54.21
48156;BME280;35568;48.104;11.782;2022-11-20T06:45:20;94876.22;;;4.61;54.12
48156;BME280;35568;48.104;11.782;2022-11-20T06:47:48;94881.34;;;4.80;54.26
48156;BME280;35568;48.104;11.782;2022-11-20T06:50:15;94887.24;;;4.40;54.02
48156;BME280;35568;48.104;11.782;2022-11-20T06:52:42;94892.62;;;4.41;54.06
48156;BME280;35568;48.104;11.782;2022-11-20T06:55:09;94894.52;;;4.54;54.06
48156;BME280;35568;48.104;11.782;2022-11-20T06:57:36;94899.13;;;4.92;53.72
48156;BME280;35568;48.104;11.782;2022-11-20T07:00:04;94903.79;;;4.83;53.96
48156;BME280;35568;48.104;11.782;2022-11-20T07:02:30;94902.40;;;4.69;54.31
48156;BME280;35568;48.104;11.782;2022-11-20T07:04:57;94907.40;;;4.63;54.02
48156;BME280;35568;48.104;11.782;2022-11-20T07:07:24;94910.47;;;4.83;54.11
48156;BME280;35568;48.104;11.782;2022-11-20T07:09:51;94910.82;;;4.57;53.99
48156;BME280;35568;48.104;11.782;2022-11-20T07:12:18;94912.12;;;4.59;54.04
48156;BME280;35568;48.104;11.782;2022-11-20T07:14:45;94910.18;;;4.61;54.04
48156;BME280;35568;48.104;11.782;2022-11-20T07:17:12;94911.75;;;4.77;53.82
48156;BME280;35568;48.104;11.782;2022-11-20T07:19:39;94910.39;;;4.81;53.88
48156;BME280;35568;48.104;11.782;2022-11-20T07:22:06;94910.86;;;4.54;53.33
48156;BME280;35568;48.104;11.782;2022-11-20T07:24:33;94914.35;;;4.64;53.24
48156;BME280;35568;48.104;11.782;2022-11-20T07:27:00;94911.94;;;4.69;52.95
48156;BME280;35568;48.104;11.782;2022-11-20T07:29:27;94917.84;;;4.88;52.72
48156;BME280;35568;48.104;11.782;2022-11-20T07:31:54;94917.28;;;5.04;52.45
48156;BME280;35568;48.104;11.782;2022-11-20T07:34:21;94916.64;;;5.18;52.43
48156;BME280;35568;48.104;11.782;2022-11-20T07:36:48;94917.01;;;5.22;52.11
48156;BME280;35568;48.104;11.782;2022-11-20T07:39:14;94918.24;;;5.38;52.01
48156;BME280;35568;48.104;11.782;2022-11-20T07:41:41;94918.41;;;5.52;51.91
48156;BME280;35568;48.104;11.782;2022-11-20T07:44:08;94920.27;;;5.57;51.73
48156;BME280;35568;48.104;11.782;2022-11-20T07:46:35;94916.66;;;5.19;52.18
48156;BME280;35568;48.104;11.782;2022-11-20T07:49:02;94918.35;;;5.30;52.04
48156;BME280;35568;48.104;11.782;2022-11-20T07:51:29;94915.46;;;5.19;51.82
48156;BME280;35568;48.104;11.782;2022-11-20T07:53:55;94915.58;;;5.43;51.84
48156;BME280;35568;48.104;11.782;2022-11-20T07:56:23;94911.61;;;5.43;51.85
48156;BME280;35568;48.104;11.782;2022-11-20T07:58:50;94912.21;;;5.40;51.66
48156;BME280;35568;48.104;11.782;2022-11-20T08:01:17;94910.70;;;5.44;51.54
48156;BME280;35568;48.104;11.782;2022-11-20T08:03:43;94915.21;;;5.23;51.56
48156;BME280;35568;48.104;11.782;2022-11-20T08:06:10;94915.09;;;5.52;50.99
48156;BME280;35568;48.104;11.782;2022-11-20T08:08:37;94914.53;;;5.62;51.14
48156;BME280;35568;48.104;11.782;2022-11-20T08:11:04;94919.79;;;5.46;51.23
48156;BME280;35568;48.104;11.782;2022-11-20T08:13:31;94918.64;;;5.76;50.57
48156;BME280;35568;48.104;11.782;2022-11-20T08:15:58;94922.40;;;5.66;50.55
48156;BME280;35568;48.104;11.782;2022-11-20T08:18:25;94921.02;;;5.74;50.49
48156;BME280;35568;48.104;11.782;2022-11-20T08:20:52;94917.43;;;5.96;50.07
48156;BME280;35568;48.104;11.782;2022-11-20T08:23:19;94915.35;;;5.41;49.59
48156;BME280;35568;48.104;11.782;2022-11-20T08:25:49;94915.43;;;5.96;49.54
48156;BME280;35568;48.104;11.782;2022-11-20T08:28:17;94921.85;;;6.12;48.90
48156;BME280;35568;48.104;11.782;2022-11-20T08:30:43;94923.99;;;5.91;48.88
48156;BME280;35568;48.104;11.782;2022-11-20T08:33:10;94929.54;;;5.49;48.78
48156;BME280;35568;48.104;11.782;2022-11-20T08:35:38;94927.45;;;5.53;48.47
48156;BME280;35568;48.104;11.782;2022-11-20T08:38:06;94931.84;;;5.66;48.29
48156;BME280;35568;48.104;11.782;2022-11-20T08:40:33;94928.69;;;5.72;48.30
48156;BME280;35568;48.104;11.782;2022-11-20T08:43:00;94930.33;;;5.78;48.31
48156;BME280;35568;48.104;11.782;2022-11-20T08:45:28;94932.71;;;5.77;48.16
48156;BME280;35568;48.104;11.782;2022-11-20T08:47:59;94930.68;;;5.65;48.13
48156;BME280;35568;48.104;11.782;2022-11-20T08:50:26;94928.17;;;6.07;48.82
48156;BME280;35568;48.104;11.782;2022-11-20T08:52:53;94929.85;;;5.94;48.40
48156;BME280;35568;48.104;11.782;2022-11-20T08:55:20;94928.67;;;5.98;48.21
48156;BME280;35568;48.104;11.782;2022-11-20T08:57:47;94926.33;;;5.86;48.03
48156;BME280;35568;48.104;11.782;2022-11-20T09:00:15;94927.85;;;5.85;48.05
48156;BME280;35568;48.104;11.782;2022-11-20T09:02:42;94922.79;;;6.18;47.92
48156;BME280;35568;48.104;11.782;2022-11-20T09:05:09;94925.52;;;6.43;47.47
48156;BME280;35568;48.104;11.782;2022-11-20T09:07:36;94926.49;;;6.30;46.97
48156;BME280;35568;48.104;11.782;2022-11-20T09:10:04;94924.62;;;6.51;47.31
48156;BME280;35568;48.104;11.782;2022-11-20T09:12:31;94926.14;;;6.54;46.99
48156;BME280;35568;48.104;11.782;2022-11-20T09:14:58;94924.81;;;6.75;46.78
48156;BME280;35568;48.104;11.782;2022-11-20T09:17:24;94923.65;;;6.76;46.57
48156;BME280;35568;48.104;11.782;2022-11-20T09:19:51;94919.43;;;6.90;46.57
48156;BME280;35568;48.104;11.782;2022-11-20T09:22:18;94921.31;;;6.68;46.72
48156;BME280;35568;48.104;11.782;2022-11-20T09:24:45;94920.86;;;6.76;46.63
48156;BME280;35568;48.104;11.782;2022-11-20T09:27:12;94917.29;;;6.38;46.36
48156;BME280;35568;48.104;11.782;2022-11-20T09:29:38;94919.42;;;7.12;45.73
48156;BME280;35568;48.104;11.782;2022-11-20T09:32:05;94918.27;;;6.80;46.36
48156;BME280;35568;48.104;11.782;2022-11-20T09:34:32;94914.38;;;6.83;46.22
48156;BME280;35568;48.104;11.782;2022-11-20T09:36:59;94913.43;;;6.78;46.22
48156;BME280;35568;48.104;11.782;2022-11-20T09:39:26;94912.92;;;7.14;45.68
48156;BME280;35568;48.104;11.782;2022-11-20T09:42:03;94908.44;;;6.89;46.19
48156;BME280;35568;48.104;11.782;2022-11-20T09:44:42;94910.14;;;6.71;46.00
48156;BME280;35568;48.104;11.782;2022-11-20T09:47:23;94908.81;;;7.02;45.96
48156;BME280;35568;48.104;11.782;2022-11-20T09:50:07;94911.26;;;7.03;46.10
48156;BME280;35568;48.104;11.782;2022-11-20T09:52:48;94907.71;;;7.26;45.69
48156;BME280;35568;48.104;11.782;2022-11-20T09:55:21;94903.70;;;7.28;44.77
48156;BME280;35568;48.104;11.782;2022-11-20T09:57:51;94898.91;;;7.38;45.00
48156;BME280;35568;48.104;11.782;2022-11-20T10:00:19;94898.67;;;7.36;44.23
48156;BME280;35568;48.104;11.782;2022-11-20T10:02:50;94895.15;;;7.24;44.09
48156;BME280;35568;48.104;11.782;2022-11-20T10:05:23;94892.66;;;7.31;43.37
48156;BME280;35568;48.104;11.782;2022-11-20T10:07:55;94893.75;;;7.36;44.01
48156;BME280;35568;48.104;11.782;2022-11-20T10:10:31;94889.49;;;7.64;43.51
48156;BME280;35568;48.104;11.782;2022-11-20T10:13:17;94886.23;;;7.45;43.36
48156;BME280;35568;48.104;11.782;2022-11-20T10:15:57;94887.40;;;7.49;42.84
48156;BME280;35568;48.104;11.782;2022-11-20T10:18:40;94891.78;;;7.58;43.03
48156;BME280;35568;48.104;11.782;2022-11-20T10:21:14;94887.05;;;7.33;42.34
48156;BME280;35568;48.104;11.782;2022-11-20T10:24:55;94883.66;;;7.71;43.23
48156;BME280;35568;48.104;11.782;2022-11-20T10:27:35;94882.67;;;7.36;42.64
48156;BME280;35568;48.104;11.782;2022-11-20T10:30:09;94891.41;;;7.59;42.51
48156;BME280;35568;48.104;11.782;2022-11-20T10:32:39;94892.20;;;8.47;42.37
48156;BME280;35568;48.104;11.782;2022-11-20T10:35:17;94893.48;;;8.60;41.80
48156;BME280;35568;48.104;11.782;2022-11-20T10:37:49;94885.71;;;8.28;41.04
48156;BME280;35568;48.104;11.782;2022-11-20T10:40:22;94882.40;;;7.93;41.43
48156;BME280;35568;48.104;11.782;2022-11-20T10:42:54;94885.68;;;7.26;42.01
48156;BME280;35568;48.104;11.782;2022-11-20T10:45:33;94886.22;;;7.60;42.65
48156;BME280;35568;48.104;11.782;2022-11-20T10:48:12;94885.39;;;7.73;42.42
48156;BME280;35568;48.104;11.782;2022-11-20T10:50:54;94869.61;;;7.66;42.47
48156;BME280;35568;48.104;11.782;2022-11-20T10:53:40;94872.93;;;7.80;42.45
48156;BME280;35568;48.104;11.782;2022-11-20T10:56:15;94867.12;;;7.87;42.33
48156;BME280;35568;48.104;11.782;2022-11-20T10:58:48;94865.97;;;7.74;42.37
48156;BME280;35568;48.104;11.782;2022-11-20T11:01:21;94862.21;;;7.78;42.13
48156;BME280;35568;48.104;11.782;2022-11-20T11:03:49;94857.85;;;7.77;42.06
48156;BME280;35568;48.104;11.782;2022-11-20T11:06:25;94853.17;;;7.78;41.99
48156;BME280;35568;48.104;11.782;2022-11-20T11:08:59;94852.91;;;7.49;42.14
48156;BME280;35568;48.104;11.782;2022-11-20T11:11:30;94856.38;;;7.90;42.31
48156;BME280;35568;48.104;11.782;2022-11-20T11:14:05;94864.21;;;7.54;41.61
48156;BME280;35568;48.104;11.782;2022-11-20T11:16:32;94859.30;;;7.56;41.33
48156;BME280;35568;48.104;11.782;2022-11-20T11:19:04;94854.10;;;7.47;41.01
48156;BME280;35568;48.104;11.782;2022-11-20T11:21:32;94861.09;;;7.57;41.41
48156;BME280;35568;48.104;11.782;2022-11-20T11:24:00;94854.10;;;7.28;41.86
48156;BME280;35568;48.104;11.782;2022-11-20T11:26:29;94856.96;;;7.20;41.99
48156;BME280;35568;48.104;11.782;2022-11-20T11:28:57;94856.13;;;7.80;42.59
48156;BME280;35568;48.104;11.782;2022-11-20T11:31:26;94852.26;;;7.36;42.45
48156;BME280;35568;48.104;11.782;2022-11-20T11:34:04;94852.08;;;7.44;42.77
48156;BME280;35568;48.104;11.782;2022-11-20T11:36:32;94850.23;;;7.21;42.38
48156;BME280;35568;48.104;11.782;2022-11-20T11:39:00;94850.32;;;6.98;43.59
48156;BME280;35568;48.104;11.782;2022-11-20T11:41:31;94854.64;;;7.39;43.13
48156;BME280;35568;48.104;11.782;2022-11-20T11:44:03;94842.52;;;7.21;43.72
48156;BME280;35568;48.104;11.782;2022-11-20T11:46:43;94840.47;;;7.41;43.99
48156;BME280;35568;48.104;11.782;2022-11-20T11:49:17;94835.78;;;7.30;43.36
48156;BME280;35568;48.104;11.782;2022-11-20T11:52:00;94837.37;;;7.43;43.58
48156;BME280;35568;48.104;11.782;2022-11-20T11:54:32;94837.57;;;7.52;43.28
48156;BME280;35568;48.104;11.782;2022-11-20T11:57:10;94838.38;;;7.84;42.97
48156;BME280;35568;48.104;11.782;2022-11-20T11:59:48;94845.09;;;7.97;42.98
48156;BME280;35568;48.104;11.782;2022-11-20T12:02:29;94848.37;;;7.86;42.32
48156;BME280;35568;48.104;11.782;2022-11-20T12:05:02;94840.66;;;8.44;41.70
48156;BME280;35568;48.104;11.782;2022-11-20T12:07:39;94834.94;;;8.20;41.44
48156;BME280;35568;48.104;11.782;2022-11-20T12:10:17;94838.17;;;8.14;41.31
48156;BME280;35568;48.104;11.782;2022-11-20T12:12:51;94834.24;;;8.03;41.07
48156;BME280;35568;48.104;11.782;2022-11-20T12:15:28;94835.77;;;7.88;41.78
48156;BME280;35568;48.104;11.782;2022-11-20T12:17:55;94829.78;;;7.76;41.46
48156;BME280;35568;48.104;11.782;2022-11-20T12:20:25;94836.03;;;7.61;41.61
48156;BME280;35568;48.104;11.782;2022-11-20T12:22:59;94825.47;;;7.54;41.79
48156;BME280;35568;48.104;11.782;2022-11-20T12:25:29;94832.85;;;7.61;41.33
48156;BME280;35568;48.104;11.782;2022-11-20T12:28:10;94833.57;;;7.71;42.03
48156;BME280;35568;48.104;11.782;2022-11-20T12:30:49;94832.57;;;7.92;41.81
48156;BME280;35568;48.104;11.782;2022-11-20T12:33:37;94829.84;;;7.77;42.97
48156;BME280;35568;48.104;11.782;2022-11-20T12:36:19;94834.75;;;7.45;44.56
48156;BME280;35568;48.104;11.782;2022-11-20T12:39:02;94842.18;;;7.03;46.99
48156;BME280;35568;48.104;11.782;2022-11-20T12:41:46;94836.51;;;7.15;47.75
48156;BME280;35568;48.104;11.782;2022-11-20T12:44:23;94838.47;;;7.07;47.62
48156;BME280;35568;48.104;11.782;2022-11-20T12:46:58;94837.24;;;6.99;47.94
48156;BME280;35568;48.104;11.782;2022-11-20T12:49:36;94841.23;;;7.04;48.61
48156;BME280;35568;48.104;11.782;2022-11-20T12:52:20;94834.37;;;6.93;48.77
48156;BME280;35568;48.104;11.782;2022-11-20T12:55:02;94830.20;;;6.99;49.30
48156;BME280;35568;48.104;11.782;2022-11-20T12:57:42;94828.13;;;6.71;48.54
48156;BME280;35568;48.104;11.782;2022-11-20T13:00:14;94826.28;;;6.60;48.27
48156;BME280;35568;48.104;11.782;2022-11-20T13:03:00;94824.78;;;6.74;48.52
48156;BME280;35568;48.104;11.782;2022-11-20T13:05:40;94825.37;;;6.49;49.31
48156;BME280;35568;48.104;11.782;2022-11-20T13:08:17;94827.18;;;6.21;49.13
48156;BME280;35568;48.104;11.782;2022-11-20T13:10:50;94829.27;;;6.38;49.04
48156;BME280;35568;48.104;11.782;2022-11-20T13:13:25;94830.68;;;6.62;49.07
48156;BME280;35568;48.104;11.782;2022-11-20T13:16:00;94832.42;;;6.57;49.43